createdAt,value
2022-11-13T00:02:40.731Z,-11141.38
2022-11-13T00:05:46.815Z,-11150.78
2022-11-13T00:08:55.905Z,-11150.09
2022-11-13T00:12:02.134Z,-11148.97
2022-11-13T00:15:08.693Z,-11150.09
2022-11-13T00:18:16.083Z,-11151.22
2022-11-13T00:21:25.153Z,-11149.53
2022-11-13T00:24:31.034Z,-11153.47
2022-11-13T00:27:37.350Z,-11153.19
2022-11-13T00:30:43.344Z,-11147.13
2022-11-13T00:37:17.574Z,-11151.34
2022-11-13T00:40:23.506Z,-11148.13
2022-11-13T00:43:29.663Z,-11148.53
2022-11-13T00:46:35.954Z,-11149.81
2022-11-13T00:49:43.379Z,-11145.72
2022-11-13T00:52:49.621Z,-11149.53
2022-11-13T00:55:55.697Z,-11152.34
2022-11-13T00:59:01.829Z,-11151.34
2022-11-13T01:02:07.907Z,-11150.38
2022-11-13T01:05:15.523Z,-11148.97
2022-11-13T01:08:21.670Z,-11147.84
2022-11-13T01:11:30.485Z,-11143.06
2022-11-13T01:14:36.966Z,-11139.13
2022-11-13T01:17:43.237Z,-11142.22
2022-11-13T01:20:50.817Z,-11132.81
2022-11-13T01:23:57.600Z,-11130.84
2022-11-13T01:27:03.879Z,-11137.44
2022-11-13T01:30:10.978Z,-11142.78
2022-11-13T01:33:16.900Z,-11138.44
2022-11-13T01:36:26.683Z,-11141.09
2022-11-13T01:39:33.347Z,-11138.56
2022-11-13T01:42:39.474Z,-11137.72
2022-11-13T01:46:14.718Z,-11138.84
2022-11-13T01:49:32.266Z,-11141.94
2022-11-13T01:52:44.048Z,-11146.16
2022-11-13T01:55:50.451Z,-11139.41
2022-11-13T01:59:00.416Z,-11142.66
2022-11-13T02:02:06.723Z,-11142.09
2022-11-13T02:05:13.214Z,-11143.06
2022-11-13T02:08:21.037Z,-11136.31
2022-11-13T02:11:27.200Z,-11139.69
2022-11-13T02:14:33.808Z,-11139.00
2022-11-13T02:17:44.221Z,-11130.41
2022-11-13T02:20:57.721Z,-11122.97
2022-11-13T02:24:17.541Z,-11125.38
2022-11-13T02:27:30.459Z,-11115.53
2022-11-13T02:30:37.824Z,-11120.44
2022-11-13T02:33:43.927Z,-11118.91
2022-11-13T02:36:50.294Z,-11130.13
2022-11-13T02:39:57.597Z,-11127.06
2022-11-13T02:43:03.842Z,-11129.59
2022-11-13T02:46:10.157Z,-11126.78
2022-11-13T02:49:16.156Z,-11121.00
2022-11-13T02:52:22.262Z,-11120.44
2022-11-13T02:55:29.876Z,-11118.63
2022-11-13T02:58:36.203Z,-11123.25
2022-11-13T03:01:42.404Z,-11119.19
2022-11-13T03:05:11.471Z,-11123.41
2022-11-13T03:08:14.734Z,-11122.13
2022-11-13T03:11:22.605Z,-11118.91
2022-11-13T03:14:28.932Z,-11110.06
2022-11-13T03:17:35.568Z,-11104.16
2022-11-13T03:20:43.924Z,-11103.31
2022-11-13T03:23:50.255Z,-11100.38
2022-11-13T03:26:57.755Z,-11104.88
2022-11-13T03:30:04.050Z,-11112.03
2022-11-13T03:33:10.168Z,-11108.78
2022-11-13T03:36:16.659Z,-11111.47
2022-11-13T03:39:23.159Z,-11113.72
2022-11-13T03:42:30.778Z,-11113.28
2022-11-13T03:45:37.252Z,-11113.28
2022-11-13T03:48:43.384Z,-11113.28
2022-11-13T03:51:49.360Z,-11113.84
2022-11-13T03:54:55.193Z,-11107.13
2022-11-13T03:58:02.745Z,-11106.56
2022-11-13T04:01:08.825Z,-11104.88
2022-11-13T04:04:15.626Z,-11087.44
2022-11-13T04:07:21.654Z,-11082.13
2022-11-13T04:10:28.166Z,-11084.63
2022-11-13T04:13:35.879Z,-11087.16
2022-11-13T04:16:41.968Z,-11099.25
2022-11-13T04:19:48.166Z,-11098.13
2022-11-13T04:22:54.141Z,-11093.34
2022-11-13T04:26:00.556Z,-11090.69
2022-11-13T04:29:08.428Z,-11094.19
2022-11-13T04:32:14.541Z,-11086.31
2022-11-13T04:35:20.614Z,-11082.25
2022-11-13T04:38:26.805Z,-11085.19
2022-11-13T04:41:55.173Z,-11089.69
2022-11-13T04:45:03.193Z,-11093.91
2022-11-13T04:48:09.652Z,-11093.50
2022-11-13T04:51:15.758Z,-11100.09
2022-11-13T04:54:27.369Z,-11093.63
2022-11-13T04:57:34.876Z,-11087.44
2022-11-13T05:00:42.309Z,-11089.97
2022-11-13T05:03:48.460Z,-11073.69
2022-11-13T05:06:54.741Z,-11064.84
2022-11-13T05:10:01.049Z,-11051.78
2022-11-13T05:13:07.137Z,-11066.38
2022-11-13T05:16:16.150Z,-11059.38
2022-11-13T05:19:22.478Z,-11057.00
2022-11-13T05:22:28.637Z,-11047.16
2022-11-13T05:25:34.574Z,-11044.38
2022-11-13T05:28:40.996Z,-11057.69
2022-11-13T05:31:48.821Z,-11065.28
2022-11-13T05:34:54.889Z,-11067.78
2022-11-13T05:38:02.119Z,-11074.41
2022-11-13T05:41:10.270Z,-11062.19
2022-11-13T05:44:16.358Z,-11077.47
2022-11-13T05:47:23.783Z,-11079.59
2022-11-13T05:50:30.074Z,-11084.34
2022-11-13T05:53:36.942Z,-11078.03
2022-11-13T05:56:43.229Z,-11078.88
2022-11-13T05:59:49.185Z,-11065.28
2022-11-13T06:02:56.605Z,-11055.16
2022-11-13T06:06:03.021Z,-11061.06
2022-11-13T06:09:09.505Z,-11053.19
2022-11-13T06:12:15.611Z,-11059.81
2022-11-13T06:15:21.801Z,-11047.31
2022-11-13T06:18:29.732Z,-11050.69
2022-11-13T06:21:38.916Z,-11071.72
2022-11-13T06:24:45.124Z,-11068.22
2022-11-13T06:27:51.167Z,-11093.06
2022-11-13T06:30:57.270Z,-11103.19
2022-11-13T06:34:06.135Z,-11108.94
2022-11-13T06:37:12.317Z,-11109.34
2022-11-13T06:40:18.534Z,-11111.59
2022-11-13T06:43:24.521Z,-11110.75
2022-11-13T06:46:31.101Z,-11127.19
2022-11-13T06:49:38.707Z,-11122.69
2022-11-13T06:52:44.990Z,-11113.44
2022-11-13T06:55:52.147Z,-11129.16
2022-11-13T06:58:58.533Z,-11136.03
2022-11-13T07:02:04.780Z,-11143.62
2022-11-13T07:05:12.501Z,-11140.53
2022-11-13T07:08:19.699Z,-11148.69
2022-11-13T07:11:25.779Z,-11148.97
2022-11-13T07:14:32.202Z,-11155.56
2022-11-13T07:17:38.250Z,-11151.78
2022-11-13T07:20:46.163Z,-11168.50
2022-11-13T07:23:52.887Z,-11173.00
2022-11-13T07:26:59.491Z,-11167.66
2022-11-13T07:30:07.530Z,-11165.00
2022-11-13T07:33:13.894Z,-11174.25
2022-11-13T07:36:21.679Z,-11180.72
2022-11-13T07:39:28.049Z,-11175.38
2022-11-13T07:42:34.446Z,-11180.16
2022-11-13T07:45:40.844Z,-11189.72
2022-11-13T07:48:46.890Z,-11191.13
2022-11-13T07:51:54.297Z,-11195.34
2022-11-13T07:55:00.623Z,-11196.06
2022-11-13T07:58:07.158Z,-11209.41
2022-11-13T08:01:13.377Z,-11211.53
2022-11-13T08:04:19.709Z,-11203.22
2022-11-13T08:07:27.296Z,-11209.13
2022-11-13T08:10:33.991Z,-11210.69
2022-11-13T08:13:40.252Z,-11218.97
2022-11-13T08:16:46.402Z,-11221.22
2022-11-13T08:19:52.694Z,-11233.31
2022-11-13T08:23:01.192Z,-11233.47
2022-11-13T08:26:07.917Z,-11227.00
2022-11-13T08:29:14.373Z,-11224.59
2022-11-13T08:32:22.661Z,-11228.69
2022-11-13T08:35:29.718Z,-11243.19
2022-11-13T08:38:37.528Z,-11250.78
2022-11-13T08:41:44.062Z,-11248.09
2022-11-13T08:44:50.360Z,-11249.50
2022-11-13T08:48:00.013Z,-11253.72
2022-11-13T08:51:06.649Z,-11246.00
2022-11-13T08:54:14.537Z,-11262.44
2022-11-13T08:57:20.791Z,-11245.56
2022-11-13T09:00:27.561Z,-11258.50
2022-11-13T09:03:36.342Z,-11267.81
2022-11-13T09:06:43.012Z,-11271.75
2022-11-13T09:09:50.923Z,-11275.97
2022-11-13T09:12:59.271Z,-11279.47
2022-11-13T09:16:06.062Z,-11279.19
2022-11-13T09:19:12.302Z,-11284.00
2022-11-13T09:22:18.402Z,-11298.78
2022-11-13T09:25:26.405Z,-11276.53
2022-11-13T09:28:32.805Z,-11280.47
2022-11-13T09:31:41.284Z,-11276.94
2022-11-13T09:34:47.727Z,-11278.34
2022-11-13T09:37:53.738Z,-11281.72
2022-11-13T09:41:06.961Z,-11282.28
2022-11-13T09:44:17.410Z,-11295.53
2022-11-13T09:47:29.193Z,-11294.69
2022-11-13T09:50:35.589Z,-11297.63
2022-11-13T09:53:42.892Z,-11289.63
2022-11-13T09:56:58.133Z,-11291.31
2022-11-13T10:00:12.014Z,-11286.78
2022-11-13T10:04:00.733Z,-11311.16
2022-11-13T10:07:06.889Z,-11316.94
2022-11-13T10:10:33.433Z,-11320.72
2022-11-13T10:13:47.091Z,-11331.84
2022-11-13T10:16:58.512Z,-11308.75
2022-11-13T10:20:09.671Z,-11326.78
2022-11-13T10:23:20.584Z,-11334.66
2022-11-13T10:26:30.016Z,-11348.63
2022-11-13T10:29:38.281Z,-11338.06
2022-11-13T10:32:45.571Z,-11342.56
2022-11-13T10:35:58.375Z,-11338.34
2022-11-13T10:39:07.552Z,-11324.81
2022-11-13T10:42:23.484Z,-11341.16
2022-11-13T10:45:31.361Z,-11348.19
2022-11-13T10:48:38.233Z,-11364.81
2022-11-13T10:51:44.896Z,-11345.09
2022-11-13T10:54:51.893Z,-11342.56
2022-11-13T10:58:00.050Z,-11357.50
2022-11-13T11:01:17.143Z,-11354.25
2022-11-13T11:04:27.431Z,-11355.22
2022-11-13T11:07:41.648Z,-11365.53
2022-11-13T11:11:15.893Z,-11354.81
2022-11-13T11:14:28.163Z,-11358.91
2022-11-13T11:17:43.685Z,-11370.16
2022-11-13T11:20:56.157Z,-11368.47
2022-11-13T11:24:13.623Z,-11382.00
2022-11-13T11:27:24.165Z,-11364.25
2022-11-13T11:30:36.728Z,-11379.91
2022-11-13T11:33:51.592Z,-11384.69
2022-11-13T11:37:05.261Z,-11361.72
2022-11-13T11:40:23.178Z,-11372.84
2022-11-13T11:43:39.165Z,-11355.38
2022-11-13T11:46:46.860Z,-11374.41
2022-11-13T11:49:55.734Z,-11373.13
2022-11-13T11:53:07.564Z,-11386.78
2022-11-13T11:56:24.773Z,-11393.84
2022-11-13T11:59:51.409Z,-11390.03
2022-11-13T12:03:11.695Z,-11366.78
2022-11-13T12:06:29.144Z,-11390.47
2022-11-13T12:09:40.092Z,-11383.41
2022-11-13T12:13:12.474Z,-11368.91
2022-11-13T12:16:28.472Z,-11373.00
2022-11-13T12:19:53.228Z,-11384.53
2022-11-13T12:23:12.174Z,-11401.44
2022-11-13T12:26:24.465Z,-11391.88
2022-11-13T12:29:46.606Z,-11393.00
2022-11-13T12:33:17.523Z,-11408.22
2022-11-13T12:36:24.934Z,-11403.00
2022-11-13T12:39:40.935Z,-11415.12
2022-11-13T12:42:51.555Z,-11405.53
2022-11-13T12:46:01.203Z,-11405.81
2022-11-13T12:49:27.147Z,-11407.22
2022-11-13T12:52:33.583Z,-11400.75
2022-11-13T12:55:42.381Z,-11399.47
2022-11-13T12:59:23.609Z,-11381.03
2022-11-13T13:02:40.563Z,-11402.28
2022-11-13T13:06:03.877Z,-11409.19
2022-11-13T13:09:39.370Z,-11392.72
2022-11-13T13:12:56.330Z,-11413.28
2022-11-13T13:16:05.712Z,-11403.56
2022-11-13T13:19:26.522Z,-11384.53
2022-11-13T13:22:35.365Z,-11391.72
2022-11-13T13:25:42.413Z,-11398.34
2022-11-13T13:28:52.551Z,-11383.13
2022-11-13T13:32:11.726Z,-11376.94
2022-11-13T13:35:25.193Z,-11384.81
2022-11-13T13:38:39.308Z,-11363.97
2022-11-13T13:42:01.659Z,-11352.13
2022-11-13T13:45:25.296Z,-11348.06
2022-11-13T13:48:33.184Z,-11324.25
2022-11-13T13:51:44.226Z,-11325.09
2022-11-13T13:54:50.651Z,-11328.75
2022-11-13T13:57:59.347Z,-11329.03
2022-11-13T14:01:20.227Z,-11326.78
2022-11-13T14:04:29.587Z,-11323.13
2022-11-13T14:07:35.973Z,-11308.75
2022-11-13T14:10:42.325Z,-11295.66
2022-11-13T14:13:48.361Z,-11288.78
2022-11-13T14:16:57.851Z,-11289.06
2022-11-13T14:20:04.602Z,-11281.88
2022-11-13T14:23:14.209Z,-11270.19
2022-11-13T14:26:21.921Z,-11272.59
2022-11-13T14:29:36.272Z,-11267.09
2022-11-13T14:32:47.173Z,-11264.56
2022-11-13T14:35:56.953Z,-11254.84
2022-11-13T14:39:04.216Z,-11253.59
2022-11-13T14:42:19.778Z,-11251.63
2022-11-13T14:45:27.807Z,-11249.37
2022-11-13T14:48:36.361Z,-11249.22
2022-11-13T14:51:43.185Z,-11244.31
2022-11-13T14:55:16.148Z,-11250.50
2022-11-13T14:58:15.953Z,-11248.25
2022-11-13T15:01:25.079Z,-11240.78
2022-11-13T15:04:37.838Z,-11245.00
2022-11-13T15:07:47.263Z,-11233.31
2022-11-13T15:10:53.926Z,-11228.81
2022-11-13T15:14:04.167Z,-11234.19
2022-11-13T15:17:16.963Z,-11239.22
2022-11-13T15:20:27.889Z,-11233.59
2022-11-13T15:23:35.117Z,-11222.63
2022-11-13T15:26:41.653Z,-11224.03
2022-11-13T15:29:48.261Z,-11220.94
2022-11-13T15:32:56.642Z,-11216.03
2022-11-13T15:36:04.786Z,-11209.69
2022-11-13T15:39:18.520Z,-11212.22
2022-11-13T15:42:33.049Z,-11211.94
2022-11-13T15:45:43.997Z,-11208.44
2022-11-13T15:48:51.298Z,-11200.00
2022-11-13T15:51:59.252Z,-11188.31
2022-11-13T15:55:14.393Z,-11188.88
2022-11-13T15:58:20.920Z,-11182.97
2022-11-13T16:01:27.253Z,-11185.66
2022-11-13T16:04:54.598Z,-11177.63
2022-11-13T16:08:01.252Z,-11174.97
2022-11-13T16:11:07.727Z,-11172.31
2022-11-13T16:14:14.010Z,-11171.19
2022-11-13T16:17:21.192Z,-11170.91
2022-11-13T16:20:27.051Z,-11164.72
2022-11-13T16:23:49.028Z,-11162.03
2022-11-13T16:26:58.629Z,-11156.13
2022-11-13T16:30:07.112Z,-11156.00
2022-11-13T16:33:14.053Z,-11157.41
2022-11-13T16:36:22.612Z,-11150.38
2022-11-13T16:39:30.182Z,-11156.41
2022-11-13T16:42:36.231Z,-11154.44
2022-11-13T16:45:42.289Z,-11153.47
2022-11-13T16:48:48.962Z,-11152.06
2022-11-13T16:51:55.279Z,-11148.41
2022-11-13T16:55:06.564Z,-11146.72
2022-11-13T16:58:14.906Z,-11146.44
2022-11-13T17:01:22.501Z,-11139.97
2022-11-13T17:04:29.015Z,-11144.34
2022-11-13T17:07:35.183Z,-11132.38
2022-11-13T17:10:42.884Z,-11135.19
2022-11-13T17:13:51.010Z,-11112.16
2022-11-13T17:16:57.270Z,-11112.88
2022-11-13T17:20:03.241Z,-11110.91
2022-11-13T17:23:15.198Z,-11102.06
2022-11-13T17:26:22.775Z,-11097.28
2022-11-13T17:29:29.011Z,-11105.16
2022-11-13T17:32:35.007Z,-11115.25
2022-11-13T17:35:41.064Z,-11122.56
2022-11-13T17:38:47.065Z,-11122.41
2022-11-13T17:41:54.728Z,-11121.16
2022-11-13T17:45:00.670Z,-11123.69
2022-11-13T17:48:06.864Z,-11125.66
2022-11-13T17:51:14.936Z,-11122.56
2022-11-13T17:54:21.128Z,-11124.53
2022-11-13T17:57:28.676Z,-11111.88
2022-11-13T18:00:35.257Z,-11105.56
2022-11-13T18:03:41.986Z,-11102.75
2022-11-13T18:06:48.045Z,-11086.31
2022-11-13T18:09:54.523Z,-11087.72
2022-11-13T18:13:02.222Z,-11090.81
2022-11-13T18:16:12.946Z,-11074.53
2022-11-13T18:19:19.639Z,-11086.88
2022-11-13T18:22:26.031Z,-11085.06
2022-11-13T18:25:35.456Z,-11081.84
2022-11-13T18:28:45.949Z,-11095.03
2022-11-13T18:31:52.269Z,-11102.34
2022-11-13T18:34:58.601Z,-11099.53
2022-11-13T18:38:04.725Z,-11108.94
2022-11-13T18:41:13.943Z,-11103.75
2022-11-13T18:44:21.593Z,-11103.88
2022-11-13T18:47:27.988Z,-11085.19
2022-11-13T18:50:34.123Z,-11068.63
2022-11-13T18:53:40.606Z,-11058.53
2022-11-13T18:56:48.257Z,-11060.50
2022-11-13T18:59:56.078Z,-11068.91
2022-11-13T19:03:04.150Z,-11067.50
2022-11-13T19:06:12.861Z,-11074.25
2022-11-13T19:09:19.495Z,-11070.19
2022-11-13T19:12:25.765Z,-11076.22
2022-11-13T19:15:34.380Z,-11056.28
2022-11-13T19:18:43.146Z,-11049.97
2022-11-13T19:21:50.094Z,-11051.78
2022-11-13T19:24:56.782Z,-11069.47
2022-11-13T19:28:03.518Z,-11075.09
2022-11-13T19:31:14.087Z,-11063.16
2022-11-13T19:34:20.360Z,-11073.12
2022-11-13T19:37:26.529Z,-11067.09
2022-11-13T19:40:32.482Z,-11073.12
2022-11-13T19:43:41.200Z,-11074.41
2022-11-13T19:46:50.665Z,-11051.78
2022-11-13T19:49:57.018Z,-11037.06
2022-11-13T19:53:03.398Z,-11028.22
2022-11-13T19:56:09.971Z,-11028.78
2022-11-13T19:59:16.390Z,-11034.97
2022-11-13T20:02:24.342Z,-11046.75
2022-11-13T20:05:30.590Z,-11044.66
2022-11-13T20:08:37.597Z,-11060.91
2022-11-13T20:11:45.280Z,-11059.38
2022-11-13T20:14:52.330Z,-11055.03
2022-11-13T20:17:59.945Z,-11053.47
2022-11-13T20:21:07.400Z,-11066.38
2022-11-13T20:24:13.916Z,-11065.41
2022-11-13T20:27:20.114Z,-11066.13
2022-11-13T20:30:26.239Z,-11042.25
2022-11-13T20:33:34.754Z,-11048.84
2022-11-13T20:36:40.750Z,-11039.59
2022-11-13T20:39:46.777Z,-11024.72
2022-11-13T20:42:52.748Z,-11037.78
2022-11-13T20:46:03.395Z,-11039.59
2022-11-13T20:49:10.864Z,-11020.09
2022-11-13T20:52:17.013Z,-11020.38
2022-11-13T20:55:23.099Z,-11023.31
2022-11-13T20:58:29.215Z,-11031.88
2022-11-13T21:01:37.201Z,-11036.09
2022-11-13T21:04:44.652Z,-11039.44
2022-11-13T21:07:51.028Z,-11042.13
2022-11-13T21:10:56.917Z,-11053.47
2022-11-13T21:14:03.090Z,-11050.25
2022-11-13T21:17:09.238Z,-11051.09
2022-11-13T21:20:17.034Z,-11049.28
2022-11-13T21:23:23.365Z,-11050.97
2022-11-13T21:26:29.730Z,-11038.59
2022-11-13T21:29:36.018Z,-11039.72
2022-11-13T21:32:42.706Z,-11029.22
2022-11-13T21:35:50.415Z,-11024.72
2022-11-13T21:38:57.791Z,-11015.88
2022-11-13T21:42:04.250Z,-11031.03
2022-11-13T21:45:11.189Z,-11024.03
2022-11-13T21:48:17.232Z,-11028.22
2022-11-13T21:51:24.735Z,-11012.09
2022-11-13T21:54:31.039Z,-11015.19
2022-11-13T21:57:37.133Z,-11022.19
2022-11-13T22:00:43.147Z,-11012.53
2022-11-13T22:03:49.683Z,-11021.50
2022-11-13T22:06:57.496Z,-11020.38
2022-11-13T22:10:08.143Z,-11011.69
2022-11-13T22:13:15.057Z,-11032.44
2022-11-13T22:16:22.012Z,-11013.50
2022-11-13T22:19:33.483Z,-11001.88
2022-11-13T22:22:43.894Z,-10997.09
2022-11-13T22:25:52.466Z,-10992.34
2022-11-13T22:29:02.909Z,-10994.00
2022-11-13T22:32:09.510Z,-11013.66
2022-11-13T22:35:16.320Z,-11019.25
2022-11-13T22:38:24.303Z,-11029.22
2022-11-13T22:41:33.182Z,-11007.91
2022-11-13T22:44:54.954Z,-11010.56
2022-11-13T22:48:03.005Z,-10996.69
2022-11-13T22:51:11.718Z,-11001.31
2022-11-13T22:54:19.520Z,-11002.72
2022-11-13T22:57:25.606Z,-11020.94
2022-11-13T23:00:31.961Z,-11029.50
2022-11-13T23:03:39.619Z,-11031.59
2022-11-13T23:06:45.935Z,-11033.97
2022-11-13T23:09:53.843Z,-11033.56
2022-11-13T23:12:59.903Z,-11029.78
2022-11-13T23:16:06.615Z,-11027.94
2022-11-13T23:19:13.192Z,-11016.88
2022-11-13T23:22:19.449Z,-11000.19
2022-11-13T23:25:27.154Z,-10976.22
2022-11-13T23:28:33.435Z,-10959.53
2022-11-13T23:31:39.254Z,-10960.25
2022-11-13T23:35:00.603Z,-10954.22
2022-11-13T23:38:07.170Z,-10952.66
2022-11-13T23:41:15.239Z,-10956.16
2022-11-13T23:44:21.275Z,-10973.00
2022-11-13T23:47:27.702Z,-10984.34
2022-11-13T23:50:34.035Z,-11006.34
2022-11-13T23:53:40.345Z,-11006.06
2022-11-13T23:56:47.980Z,-11008.88
2022-11-13T23:59:54.537Z,-11013.38
